EGGP/LPL METAR and TAF weather

Enter ICAO airport designator
Station Type Date Time Source
EGGP METAR 2018/01/22 19:50 UTC NOAA

EGGP 221950Z 21010KT 9999 SCT028 BKN034 08/06 Q1015


Station Type Date Time Source
EGGP Decoded METAR 2018/01/22 19:50 UTC NOAA

Liverpool Airport , United Kingdom (EGGP) 53-20N 002-51W
Jan 22, 2018 - 02:50 PM EST / 2018.01.22 1950 UTC
Wind: from the SSW (210 degrees) at 12 MPH (10 KT):0
Visibility: greater than 7 mile(s):0
Sky conditions: mostly cloudy
Temperature: 46 F (8 C)
Dew Point: 42 F (6 C)
Relative Humidity: 87%
Pressure (altimeter): 29.97 in. Hg (1015 hPa)
ob: EGGP 221950Z 21010KT 9999 SCT028 BKN034 08/06 Q1015
cycle: 20

Station Type Date Time Source
EGGP TAF 2018/01/22 18:15 UTC NOAA

TAF TAF EGGP 221702Z 2218/2318 22010KT 9999 FEW025 SCT040
BECMG 2222/2301 14008KT
TEMPO 2304/2315 5000 -RADZ BKN012 PROB40
TEMPO 2304/2318 16017G27KT PROB30
TEMPO 2307/2310 3000 RADZ BKN008


Example: see airport list